Time;durP1;ratioP1;P1;durP2;ratioP2;P2;SDS_P1;SDS_P2;PMS_P1;PMS_P2;Temp;Humidity;BMP_temperature;BMP_pressure;BME280_temperature;BME280_humidity;BME280_pressure;Samples;Min_cycle;Max_cycle;Signal;HPM_P1;HPM_P2
2022/10/03 08:45:30;;;;;;;32.30;15.13;;;;;;;12.62;88.69;97653.41;2102385;27;20573;-72
2022/10/03 08:47:01;;;;;;;28.70;12.18;;;;;;;12.78;87.93;97645.81;2083647;28;20226;-73
2022/10/03 08:48:36;;;;;;;34.22;12.43;;;;;;;13.55;84.93;97647.25;2074145;28;20660;-73
2022/10/03 08:49:50;;;;;;;34.40;12.95;;;;;;;14.13;81.44;97643.94;2086991;28;20208;-73
2022/10/03 08:51:07;;;;;;;20.65;10.35;;;;;;;14.71;79.29;97642.28;2087039;28;20278;-73
2022/10/03 08:52:23;;;;;;;35.42;9.80;;;;;;;15.20;75.89;97649.69;2085288;28;20214;-73
2022/10/03 08:53:50;;;;;;;20.40;8.00;;;;;;;15.51;74.14;97643.81;2081813;28;20227;-73
2022/10/03 08:55:15;;;;;;;14.73;8.45;;;;;;;15.21;73.10;97648.78;2084856;28;20223;-73
2022/10/03 08:56:26;;;;;;;15.23;6.80;;;;;;;14.83;76.71;97643.50;2074788;28;20290;-68
2022/10/03 09:05:15;;;;;;;17.85;7.03;;;;;;;15.34;74.24;97586.72;2083285;28;20563;-68
2022/10/03 09:06:32;;;;;;;20.23;8.32;;;;;;;17.23;70.10;97655.19;2080067;28;20225;-68
2022/10/03 09:08:11;;;;;;;25.20;7.80;;;;;;;18.37;67.78;97650.44;2072156;28;20633;-68
2022/10/03 09:09:54;;;;;;;14.68;6.85;;;;;;;19.23;62.83;97644.28;2074944;28;20311;-68
2022/10/03 09:11:20;;;;;;;14.10;6.65;;;;;;;20.19;62.72;97653.97;2074989;28;20792;-68
2022/10/03 09:12:49;;;;;;;17.83;6.70;;;;;;;18.62;66.11;97648.97;2081897;28;20237;-68
2022/10/03 09:14:12;;;;;;;17.92;8.07;;;;;;;18.89;66.19;97646.38;2078237;28;20220;-68
2022/10/03 09:15:48;;;;;;;13.02;6.78;;;;;;;19.00;64.32;97643.94;2075089;28;20288;-68
2022/10/03 09:16:54;;;;;;;15.45;7.60;;;;;;;19.59;63.58;97648.13;2056200;28;20250;-68
2022/10/03 09:17:59;;;;;;;25.35;7.70;;;;;;;19.77;62.06;97645.22;2072846;28;20309;-68
2022/10/03 09:19:52;;;;;;;15.02;7.13;;;;;;;20.74;60.82;97638.69;2072936;28;20720;-68
2022/10/03 09:21:22;;;;;;;15.63;6.25;;;;;;;21.62;57.04;97636.88;2067659;28;20727;-69
2022/10/03 09:22:23;;;;;;;16.20;5.68;;;;;;;22.50;57.69;97641.75;2070891;28;20613;-69
2022/10/03 09:23:42;;;;;;;15.95;5.95;;;;;;;22.51;51.41;97639.94;2073228;28;20933;-68
2022/10/03 09:24:54;;;;;;;14.98;5.18;;;;;;;21.21;53.89;97634.44;2074616;28;20280;-68
2022/10/03 09:26:30;;;;;;;17.08;5.00;;;;;;;21.77;54.26;97632.22;2074379;28;20299;-69
2022/10/03 09:28:22;;;;;;;9.98;3.78;;;;;;;22.66;49.79;97632.56;2074754;28;20288;-68
2022/10/03 09:29:44;;;;;;;15.48;5.80;;;;;;;22.15;52.21;97637.28;2072916;28;20864;-69
2022/10/03 09:31:11;;;;;;;15.73;5.00;;;;;;;23.22;50.96;97633.53;2074573;28;20193;-68
2022/10/03 09:32:35;;;;;;;21.35;5.30;;;;;;;23.87;49.32;97642.44;2074362;28;20245;-69
2022/10/03 09:33:39;;;;;;;14.57;6.85;;;;;;;22.60;52.50;97638.38;2075337;28;20667;-68
2022/10/03 09:35:18;;;;;;;12.07;5.97;;;;;;;23.35;50.65;97638.72;2075107;28;20479;-68
2022/10/03 09:36:30;;;;;;;16.08;4.00;;;;;;;21.91;51.65;97642.66;2073651;28;20205;-68
2022/10/03 09:37:50;;;;;;;9.10;3.80;;;;;;;21.93;48.76;97630.13;2074988;28;20193;-68
2022/10/03 09:39:13;;;;;;;12.05;3.88;;;;;;;22.53;50.72;97631.84;2072453;28;20344;-68
2022/10/03 09:40:38;;;;;;;11.88;4.05;;;;;;;21.31;50.49;97631.13;2073324;28;20638;-68
2022/10/03 09:42:17;;;;;;;7.82;3.38;;;;;;;20.59;48.69;97627.31;2070041;28;20239;-68
2022/10/03 09:43:43;;;;;;;7.88;4.15;;;;;;;19.03;52.80;97627.88;2076907;28;20289;-67
2022/10/03 09:47:50;;;;;;;10.70;4.38;;;;;;;16.50;60.59;97630.06;2099987;27;20561;-67
2022/10/03 09:49:20;;;;;;;11.95;4.15;;;;;;;18.04;58.68;97628.59;2097465;28;20695;-67
2022/10/03 09:50:35;;;;;;;19.63;6.10;;;;;;;18.56;57.57;97629.88;2099458;28;20287;-67
2022/10/03 09:52:11;;;;;;;12.23;5.65;;;;;;;18.82;56.68;97611.53;2087913;28;20232;-67
2022/10/03 09:53:31;;;;;;;13.82;5.88;;;;;;;18.74;57.85;97622.59;2081207;28;20570;-67
2022/10/03 09:54:43;;;;;;;12.50;5.15;;;;;;;18.82;58.12;97618.63;2078382;28;20228;-67
2022/10/03 10:09:29;;;;;;;16.98;5.10;;;;;;;21.49;49.34;97623.63;2074594;28;20208;-67
2022/10/03 10:10:44;;;;;;;17.75;4.78;;;;;;;21.09;48.62;97629.16;2074244;28;20315;-67
2022/10/03 10:12:22;;;;;;;10.95;4.07;;;;;;;20.57;50.24;97626.59;2069747;28;20220;-67
2022/10/03 10:13:48;;;;;;;17.25;4.63;;;;;;;19.58;51.56;97623.47;2079921;28;20229;-69
2022/10/03 10:15:19;;;;;;;11.05;4.68;;;;;;;18.51;55.22;97631.97;2073471;28;20193;-67
2022/10/03 10:16:33;;;;;;;13.25;5.57;;;;;;;18.10;57.35;97628.22;2065561;28;20194;-67
2022/10/03 10:18:13;;;;;;;14.05;4.88;;;;;;;17.41;57.71;97596.09;2075709;28;20212;-67
2022/10/03 10:19:29;;;;;;;14.82;5.78;;;;;;;17.05;59.03;97634.19;2074713;28;20772;-67
2022/10/03 10:20:38;;;;;;;19.42;6.63;;;;;;;15.71;62.01;97630.59;2077144;28;20289;-67
2022/10/03 10:22:27;;;;;;;19.42;6.57;;;;;;;15.82;62.40;97631.78;2073087;28;20312;-67
2022/10/03 10:23:50;;;;;;;17.70;5.07;;;;;;;15.37;64.69;97627.81;2071071;28;20256;-66
2022/10/03 10:26:40;;;;;;;13.00;5.80;;;;;;;17.61;58.69;97633.69;2098617;27;21014;-66
2022/10/03 10:28:13;;;;;;;17.98;5.75;;;;;;;19.81;53.28;97634.34;2106109;28;20209;-66
2022/10/03 10:29:42;;;;;;;11.13;4.95;;;;;;;21.28;47.50;97631.34;2107484;28;20195;-67
2022/10/03 10:30:46;;;;;;;16.00;5.38;;;;;;;20.61;49.34;97633.38;2109021;28;20232;-67
2022/10/03 10:31:51;;;;;;;13.38;4.15;;;;;;;21.31;48.92;97631.97;2099472;28;20230;-66
2022/10/03 10:33:41;;;;;;;11.32;4.85;;;;;;;21.45;49.38;97624.81;2102924;28;20195;-66
2022/10/03 10:34:48;;;;;;;14.95;4.45;;;;;;;20.01;53.43;97637.47;2068293;28;20299;-67
2022/10/03 10:36:27;;;;;;;15.43;4.75;;;;;;;19.30;52.10;97635.00;2079307;28;20281;-67
2022/10/03 10:37:47;;;;;;;10.30;4.28;;;;;;;18.51;55.62;97637.25;2102929;28;20689;-66
2022/10/03 10:39:27;;;;;;;16.70;4.82;;;;;;;17.02;58.10;97637.00;2103439;28;20225;-66
2022/10/03 10:40:45;;;;;;;10.48;4.85;;;;;;;16.85;62.90;97643.16;2106729;28;20723;-66
2022/10/03 10:42:20;;;;;;;11.75;5.10;;;;;;;16.91;65.56;97640.22;2092582;28;20230;-66
2022/10/03 10:44:06;;;;;;;10.35;5.03;;;;;;;16.71;66.89;97641.28;2104801;28;20219;-66
2022/10/03 11:28:44;;;;;;;15.02;5.07;;;;;;;17.14;66.35;97623.13;2083551;28;20574;-67
2022/10/03 11:30:36;;;;;;;13.77;4.82;;;;;;;19.49;57.71;97609.97;2082974;28;20268;-67
2022/10/03 11:32:13;;;;;;;17.85;4.78;;;;;;;19.75;53.51;97632.91;2077616;28;20236;-67
2022/10/03 11:33:39;;;;;;;16.70;5.47;;;;;;;17.76;61.23;97626.69;2072830;28;20239;-68
2022/10/03 11:35:23;;;;;;;13.32;4.90;;;;;;;18.44;56.59;97631.47;2074803;28;20284;-68
2022/10/03 11:43:43;;;;;;;16.98;3.50;;;;;;;19.64;54.95;97624.00;2074425;28;20226;-67
2022/10/03 11:45:02;;;;;;;17.80;3.92;;;;;;;17.43;56.67;97614.50;2075605;28;20350;-68
2022/10/03 11:46:26;;;;;;;15.65;4.20;;;;;;;15.33;62.64;97619.22;2070464;28;20200;-68
2022/10/03 12:22:28;;;;;;;25.30;12.68;;;;;;;15.91;64.19;97595.38;2083785;28;20923;-68
2022/10/03 12:24:40;;;;;;;10.38;3.50;;;;;;;16.33;61.97;97597.56;2084529;28;21275;-69
2022/10/03 12:25:44;;;;;;;15.23;3.72;;;;;;;17.51;59.59;97588.50;2080206;28;20223;-70
2022/10/03 12:26:56;;;;;;;21.30;3.85;;;;;;;18.96;55.67;97596.59;2079154;28;20724;-70
2022/10/03 12:28:40;;;;;;;12.65;2.58;;;;;;;20.22;51.63;97596.22;2092615;28;20286;-69
2022/10/03 12:29:52;;;;;;;9.07;3.25;;;;;;;20.61;49.21;97579.44;2075087;28;20283;-71
2022/10/03 12:31:00;;;;;;;16.85;2.90;;;;;;;17.53;53.79;97593.69;2075527;28;20665;-72
2022/10/03 12:32:30;;;;;;;9.30;3.15;;;;;;;16.41;54.11;97583.13;2082732;28;20586;-71
2022/10/03 12:33:57;;;;;;;9.38;2.67;;;;;;;16.70;56.59;97581.56;2083938;28;20335;-71
2022/10/03 12:35:16;;;;;;;5.05;2.53;;;;;;;16.46;55.02;97573.19;2078166;28;20307;-72
2022/10/03 12:43:42;;;;;;;8.32;3.03;;;;;;;19.83;53.75;97578.59;2075996;28;20259;-71
2022/10/03 12:45:03;;;;;;;5.78;3.30;;;;;;;20.76;50.57;97567.78;2076809;28;20252;-71
2022/10/03 12:46:25;;;;;;;9.43;2.78;;;;;;;21.08;48.10;97554.00;2074058;28;20236;-71
2022/10/03 12:47:27;;;;;;;12.88;2.70;;;;;;;21.87;46.35;97574.75;2077316;28;20209;-69
2022/10/03 12:49:06;;;;;;;6.78;1.88;;;;;;;21.29;44.74;97561.34;2078769;28;20291;-69
2022/10/03 12:50:16;;;;;;;11.50;3.33;;;;;;;18.97;48.31;97570.06;2076739;28;20286;-69
2022/10/03 12:51:46;;;;;;;13.43;3.67;;;;;;;18.89;49.61;97572.28;2075774;28;20194;-69
2022/10/03 12:53:29;;;;;;;6.80;2.10;;;;;;;18.50;50.68;97568.56;2075418;28;20280;-69
2022/10/03 12:55:08;;;;;;;11.65;2.60;;;;;;;18.65;50.34;97554.41;2078040;28;20755;-69
2022/10/03 12:56:27;;;;;;;10.43;2.60;;;;;;;18.43;50.17;97566.31;2068439;28;20696;-69
2022/10/03 12:58:13;;;;;;;10.57;2.85;;;;;;;18.60;49.58;97567.03;2093118;28;20271;-69
2022/10/03 12:59:30;;;;;;;17.55;2.65;;;;;;;20.40;49.73;97561.44;2073320;28;20276;-69
2022/10/03 13:00:42;;;;;;;10.35;2.95;;;;;;;21.99;48.40;97562.31;2077596;28;20663;-67
2022/10/03 13:02:01;;;;;;;13.38;3.03;;;;;;;22.58;48.19;97561.31;2080114;28;20227;-67
2022/10/03 13:03:27;;;;;;;11.20;3.72;;;;;;;22.89;48.17;97560.69;2094375;28;20228;-67
2022/10/03 13:04:56;;;;;;;13.27;5.43;;;;;;;23.50;45.93;97543.34;2074805;28;20305;-67
2022/10/03 13:11:06;;;;;;;26.27;11.60;;;;;;;23.06;47.07;97556.63;2076833;28;20186;-67
2022/10/03 13:12:26;;;;;;;14.23;7.25;;;;;;;22.94;45.74;97558.50;2077539;28;20252;-68
2022/10/03 13:13:50;;;;;;;8.07;3.85;;;;;;;21.44;48.03;97562.00;2093134;28;20192;-67
2022/10/03 13:15:29;;;;;;;24.70;11.57;;;;;;;21.01;49.07;97561.56;2085138;28;20288;-68
2022/10/03 13:16:38;;;;;;;14.52;4.18;;;;;;;20.65;49.52;97557.06;2072017;28;20702;-68
2022/10/03 13:23:03;;;;;;;9.13;3.80;;;;;;;20.37;51.67;97556.38;2077160;28;20205;-69
2022/10/03 13:24:08;;;;;;;11.73;3.83;;;;;;;21.20;50.03;97558.41;2077803;28;20241;-69
2022/10/03 13:25:24;;;;;;;8.68;3.80;;;;;;;19.19;51.40;97560.72;2078244;28;20276;-68
2022/10/03 13:26:50;;;;;;;10.25;3.85;;;;;;;19.95;50.71;97561.00;2072345;28;20392;-69
2022/10/03 13:28:06;;;;;;;10.07;3.95;;;;;;;20.76;50.58;97564.28;2093165;28;20191;-68
2022/10/03 13:29:37;;;;;;;17.20;3.97;;;;;;;21.00;48.53;97562.53;2077608;28;20203;-68
2022/10/03 13:30:48;;;;;;;11.07;3.58;;;;;;;21.44;49.32;97552.22;2076813;28;20289;-68
2022/10/03 13:32:01;;;;;;;16.15;5.22;;;;;;;22.16;47.68;97556.53;2077968;28;20296;-68
2022/10/03 13:33:16;;;;;;;11.55;4.00;;;;;;;22.53;46.69;97552.03;2091426;28;20224;-69
2022/10/03 13:34:21;;;;;;;9.75;2.88;;;;;;;19.91;47.86;97549.81;2076496;28;20261;-68
2022/10/03 13:35:57;;;;;;;13.80;3.88;;;;;;;17.60;53.54;97550.16;2074252;28;20694;-68
2022/10/03 13:37:08;;;;;;;15.90;4.82;;;;;;;18.09;56.18;97536.69;2070326;28;20636;-68
2022/10/03 13:38:25;;;;;;;12.07;4.70;;;;;;;19.12;54.43;97557.59;2070201;28;20289;-68
2022/10/03 13:39:43;;;;;;;15.75;3.20;;;;;;;18.01;54.42;97551.31;2071100;28;20688;-69
2022/10/03 13:47:45;;;;;;;10.98;3.20;;;;;;;18.69;53.98;97550.63;2071543;28;20210;-69
2022/10/03 13:48:57;;;;;;;9.02;2.80;;;;;;;18.67;55.15;97549.84;2070025;28;20241;-69
2022/10/03 13:50:20;;;;;;;6.07;2.50;;;;;;;18.60;54.89;97554.69;2071061;28;20361;-69
2022/10/03 13:51:39;;;;;;;12.23;3.92;;;;;;;18.47;54.48;97539.69;2064587;28;20233;-69
2022/10/03 13:52:50;;;;;;;9.38;2.42;;;;;;;17.90;55.64;97546.63;2086266;28;20211;-71
2022/10/03 13:59:04;;;;;;;13.77;3.30;;;;;;;16.48;56.72;97539.66;2082880;28;20180;-71
2022/10/03 14:00:14;;;;;;;9.23;2.90;;;;;;;16.02;58.43;97542.97;2069419;28;20225;-72
2022/10/03 14:01:25;;;;;;;16.40;2.83;;;;;;;16.54;57.39;97546.41;2062909;28;20202;-71
2022/10/03 14:02:43;;;;;;;10.40;3.05;;;;;;;16.28;58.02;97540.78;2087387;28;20582;-71
2022/10/03 14:03:55;;;;;;;13.02;3.03;;;;;;;16.86;56.87;97538.50;2073349;28;20206;-72
2022/10/03 14:04:59;;;;;;;8.80;2.75;;;;;;;17.31;56.40;97539.50;2071136;28;20304;-69
2022/10/03 14:06:20;;;;;;;13.05;3.67;;;;;;;17.20;56.55;97532.19;2072249;28;20280;-69
2022/10/03 14:07:34;;;;;;;9.60;3.35;;;;;;;17.77;56.65;97528.00;2071967;28;20644;-70
2022/10/03 14:09:01;;;;;;;9.00;2.70;;;;;;;17.81;55.94;97532.16;2071328;28;20285;-71
2022/10/03 14:10:02;;;;;;;11.07;2.92;;;;;;;18.14;56.13;97527.63;2072518;28;20201;-71
2022/10/03 14:11:21;;;;;;;10.57;3.42;;;;;;;18.45;56.46;97526.56;2088253;28;20193;-72
2022/10/03 14:13:05;;;;;;;7.90;2.33;;;;;;;19.27;54.35;97531.94;2082187;28;20707;-71
2022/10/03 14:14:22;;;;;;;11.15;2.20;;;;;;;17.68;57.49;97513.56;2071132;28;20278;-71
2022/10/03 14:15:47;;;;;;;17.67;3.53;;;;;;;19.31;55.17;97530.81;2072076;28;20240;-71
2022/10/03 14:16:55;;;;;;;10.77;3.00;;;;;;;19.47;54.81;97519.19;2074752;28;20216;-71
2022/10/03 14:18:15;;;;;;;14.65;3.17;;;;;;;19.67;54.38;97526.63;2084284;28;20235;-71
2022/10/03 14:19:53;;;;;;;7.82;2.42;;;;;;;20.15;53.26;97506.63;2068628;28;20616;-71
2022/10/03 14:20:55;;;;;;;6.70;2.55;;;;;;;20.38;52.15;97523.59;2071659;28;20285;-71
2022/10/03 14:22:31;;;;;;;7.05;2.40;;;;;;;20.24;52.62;97535.16;2077880;28;20256;-70
2022/10/03 14:23:47;;;;;;;12.93;3.72;;;;;;;20.13;49.84;97522.66;2076939;28;20288;-70
2022/10/03 14:25:10;;;;;;;24.50;5.75;;;;;;;19.37;52.68;97526.88;2071690;28;20276;-68
2022/10/03 14:26:14;;;;;;;10.35;4.13;;;;;;;20.63;51.77;97527.13;2076993;28;20199;-69
2022/10/03 14:27:35;;;;;;;11.40;3.70;;;;;;;21.35;50.81;97526.34;2083849;28;20272;-69
2022/10/03 14:28:45;;;;;;;9.40;3.55;;;;;;;21.47;49.96;97511.28;2073294;28;20233;-69
2022/10/03 14:29:56;;;;;;;8.70;2.90;;;;;;;21.25;50.03;97504.09;2070335;28;20234;-69
2022/10/03 14:31:22;;;;;;;11.68;2.70;;;;;;;20.34;50.39;97515.00;2070377;28;20232;-69
2022/10/03 14:32:38;;;;;;;8.65;2.53;;;;;;;19.47;53.30;97514.72;2071404;28;20229;-70
2022/10/03 14:34:15;;;;;;;7.68;2.67;;;;;;;19.59;54.16;97520.97;2070160;28;20207;-69
2022/10/03 14:47:26;;;;;;;8.48;2.90;;;;;;;20.17;52.40;97520.63;2068213;28;20224;-69
2022/10/03 14:48:35;;;;;;;10.15;2.35;;;;;;;20.44;50.68;97519.63;2066782;28;20226;-69
2022/10/03 14:49:39;;;;;;;9.05;2.53;;;;;;;20.58;51.99;97519.50;2069487;28;20198;-69
2022/10/03 14:51:07;;;;;;;7.65;2.58;;;;;;;20.26;51.46;97508.53;2070699;28;20194;-69
2022/10/03 14:52:27;;;;;;;7.35;2.40;;;;;;;19.67;52.37;97509.91;2071522;28;20253;-69
2022/10/03 15:05:23;;;;;;;10.45;2.25;;;;;;;17.52;57.62;97487.25;2071777;28;20272;-69
2022/10/03 15:06:37;;;;;;;6.18;2.65;;;;;;;17.69;57.97;97504.72;2065264;28;20190;-69
2022/10/03 15:07:45;;;;;;;9.13;3.05;;;;;;;17.59;58.69;97501.75;2086177;28;20227;-69
2022/10/03 15:08:56;;;;;;;8.48;2.80;;;;;;;17.63;57.98;97502.44;2075875;28;20633;-69
2022/10/03 15:09:59;;;;;;;7.78;3.05;;;;;;;17.48;58.89;97506.81;2071745;28;20201;-69
2022/10/03 15:17:19;;;;;;;9.07;3.65;;;;;;;18.88;55.13;97505.31;2071496;28;20732;-69
2022/10/03 15:18:23;;;;;;;8.73;3.72;;;;;;;18.77;55.01;97503.34;2068567;28;20194;-69
2022/10/03 15:19:35;;;;;;;12.65;3.70;;;;;;;18.63;55.78;97508.69;2069611;28;20202;-69
2022/10/03 15:20:40;;;;;;;16.83;3.90;;;;;;;18.22;56.00;97510.34;2084816;28;20318;-69
2022/10/03 15:21:44;;;;;;;6.78;2.00;;;;;;;17.99;57.09;97493.28;2076042;28;20240;-69
2022/10/03 15:22:52;;;;;;;6.50;2.38;;;;;;;17.92;56.92;97499.84;2078333;28;20197;-69
2022/10/03 15:24:02;;;;;;;12.90;2.80;;;;;;;17.76;57.48;97503.41;2085301;28;20969;-69
2022/10/03 15:25:16;;;;;;;8.30;2.88;;;;;;;17.78;58.31;97509.44;2082908;28;20220;-69
2022/10/03 15:26:20;;;;;;;9.63;3.30;;;;;;;17.53;59.79;97490.72;2070569;28;20231;-69
2022/10/03 15:27:23;;;;;;;13.60;3.67;;;;;;;17.44;59.75;97505.31;2068133;28;20242;-69
2022/10/03 15:29:02;;;;;;;10.05;2.97;;;;;;;17.51;59.22;97503.16;2083834;28;20285;-69
2022/10/03 15:30:05;;;;;;;10.98;2.80;;;;;;;17.58;58.60;97500.06;2059154;28;20218;-69
2022/10/03 15:31:13;;;;;;;12.82;2.88;;;;;;;18.00;58.52;97508.16;2048510;28;20198;-69
2022/10/03 15:32:34;;;;;;;7.10;2.42;;;;;;;18.00;57.85;97510.78;2052078;28;20637;-69
2022/10/03 15:33:41;;;;;;;7.50;2.40;;;;;;;17.81;56.88;97489.06;2051550;28;20234;-69
2022/10/03 15:34:48;;;;;;;9.50;2.63;;;;;;;17.72;56.89;97506.31;2046933;28;20798;-69
2022/10/03 15:35:54;;;;;;;14.20;2.88;;;;;;;17.63;57.69;97505.06;2045347;28;20512;-69
2022/10/03 15:37:14;;;;;;;11.68;3.00;;;;;;;17.23;58.22;97488.94;2047008;28;20339;-69
2022/10/03 15:38:26;;;;;;;9.27;2.42;;;;;;;17.02;58.67;97486.59;2052771;28;20916;-69
2022/10/03 15:39:34;;;;;;;7.53;2.65;;;;;;;17.03;58.88;97496.22;2048491;28;20644;-69
2022/10/03 15:40:49;;;;;;;13.57;3.50;;;;;;;16.81;61.25;97478.97;2047751;28;20203;-69
2022/10/03 15:42:02;;;;;;;13.93;3.42;;;;;;;16.89;61.20;97504.06;2038275;28;20314;-69
2022/10/03 15:43:31;;;;;;;11.02;3.03;;;;;;;16.75;61.21;97494.28;2050708;28;20701;-69
2022/10/03 15:44:38;;;;;;;12.15;2.25;;;;;;;16.60;61.56;97499.47;2059617;28;20226;-69
2022/10/03 15:45:41;;;;;;;16.27;3.08;;;;;;;16.43;61.64;97466.13;2056502;28;20254;-69
2022/10/03 15:46:57;;;;;;;14.57;3.72;;;;;;;16.44;61.79;97502.09;2048239;28;20290;-69
2022/10/03 15:48:03;;;;;;;5.03;2.75;;;;;;;16.30;62.86;97500.22;2048438;28;20285;-69
2022/10/03 15:49:12;;;;;;;13.73;2.60;;;;;;;16.19;63.14;97496.44;2047390;28;20286;-69
2022/10/03 15:50:23;;;;;;;8.90;2.58;;;;;;;16.15;63.43;97493.13;2050886;28;20243;-69
2022/10/03 15:51:29;;;;;;;12.85;2.80;;;;;;;16.08;63.88;97491.78;2038709;28;20290;-69
2022/10/03 15:52:39;;;;;;;15.55;2.80;;;;;;;16.00;64.27;97494.81;2056750;28;20381;-69
2022/10/03 16:17:02;;;;;;;35.03;18.65;;;;;;;14.95;67.58;97490.41;2060668;28;20269;-68
2022/10/03 16:18:30;;;;;;;12.50;4.18;;;;;;;14.76;68.09;97489.63;2077406;28;20231;-68
2022/10/03 16:19:40;;;;;;;7.72;2.92;;;;;;;14.57;68.71;97487.81;2077911;28;20204;-68
2022/10/03 16:20:46;;;;;;;12.63;2.92;;;;;;;14.53;69.39;97484.50;2075210;28;20231;-68
2022/10/03 16:22:04;;;;;;;11.75;2.90;;;;;;;14.49;69.39;97479.47;2062705;28;20250;-68
2022/10/03 16:23:28;;;;;;;12.65;3.13;;;;;;;14.50;69.73;97489.03;2078835;28;20278;-68
2022/10/03 16:24:34;;;;;;;10.73;2.05;;;;;;;14.32;69.83;97475.84;2061702;28;20241;-71
2022/10/03 17:09:42;;;;;;;12.57;3.00;;;;;;;11.69;80.96;97480.44;2083596;27;21073;-71
